• Join FlightAware (Why Join?)
  • Login
  • US Flag 
01:52AM EST


 

Airport Tracker/Info


-or-


 

Live Flight TrackerFlight Track Log ✈ QXE382 ✈ 12-May-2012 ✈ KSEA - CYYJ

Flight Track Log - Related Links

Times and Time Zones

All times are in EDT time to prevent confusion due to time zone crossing. See the QXE382 flight status page for this flight to view local times or setup timezone preferences in your user account.

Time Position Orientation Groundspeed Altitude Reporting Facility
EDT Latitude Longitude Course Direction KTS MPH feet Rate Location/Type
10:49AM 47.4483 -122.3097 North 124 143 1,400  Level Seattle Center
10:50AM 47.4992 -122.3081 351° North 201 231 3,500 2,100 Climbing Seattle Center
10:51AM 47.5653 -122.3239 320° Northwest 261 300 5,700 2,220 Climbing Seattle Center
10:52AM 47.6236 -122.3967 319° Northwest 271 312 8,000 1,080 Climbing Seattle Center
10:53AM 47.6803 -122.4708 320° Northwest 274 315 8,000  Level Seattle Center
10:54AM 47.7333 -122.5369 321° Northwest 273 314 8,000  Level Seattle Center
10:55AM 47.7911 -122.6069 329° Northwest 269 310 8,000  Level Seattle Center
10:56AM 47.8486 -122.6589 329° Northwest 268 308 8,000  Level Seattle Center
10:57AM 47.9125 -122.7172 328° Northwest 270 311 8,000  Level Seattle Center
10:58AM 47.9747 -122.7761 328° Northwest 269 310 8,000  Level Seattle Center
10:59AM 48.0372 -122.8347 328° Northwest 268 308 8,000  Level Seattle Center
11:00AM 48.1122 -122.9058 328° Northwest 269 310 8,000 -720 Level Seattle Center
11:01AM 48.1753 -122.9639 328° Northwest 269 310 6,600 -1,020 Descending Seattle Center
11:02AM 48.2381 -123.0239 327° Northwest 270 311 6,000 -300 Descending Seattle Center
11:03AM 48.3000 -123.0847 339° North 270 311 6,000 -600 Level Seattle Center
11:04AM 48.3694 -123.1256 339° North 267 307 4,900 -1,320 Descending Seattle Center
11:05AM 48.4317 -123.1608 339° North 240 276 3,400 -960 Descending Seattle Center
11:06AM 48.4919 -123.1958 339° North 234 269 3,000 -240 Descending Seattle Center
11:07AM 48.5572 -123.2336 338° Northwest 218 251 3,000 -360 Level Seattle Center
11:08AM 48.6119 -123.2678 250° West 216 249 2,300 -900 Descending Seattle Center
11:09AM 48.6000 -123.3167 297° West 150 173 1,400 -900 Descending Vancouver Center
11:10AM 48.6167 -123.3667 270° West 120 138 700 -660 Descending Vancouver Center
11:11AM 48.6167 -123.4000 270° West 110 127 100 -600 Descending Vancouver Center